sensor_id;sensor_type;location;lat;lon;timestamp;temperature;humidity
25825;DHT22;13658;44.534;18.694;2022-12-18T00:01:19;3.70;99.90
25825;DHT22;13658;44.534;18.694;2022-12-18T00:03:46;3.70;99.90
25825;DHT22;13658;44.534;18.694;2022-12-18T00:06:14;3.70;99.90
25825;DHT22;13658;44.534;18.694;2022-12-18T00:08:41;3.70;99.90
25825;DHT22;13658;44.534;18.694;2022-12-18T00:11:08;3.70;99.90
25825;DHT22;13658;44.534;18.694;2022-12-18T00:13:35;3.70;99.90
25825;DHT22;13658;44.534;18.694;2022-12-18T00:16:03;3.70;99.90
25825;DHT22;13658;44.534;18.694;2022-12-18T00:18:29;3.70;99.90
25825;DHT22;13658;44.534;18.694;2022-12-18T00:21:02;3.70;99.90
25825;DHT22;13658;44.534;18.694;2022-12-18T00:23:30;3.60;99.90
25825;DHT22;13658;44.534;18.694;2022-12-18T00:26:04;3.60;99.90
25825;DHT22;13658;44.534;18.694;2022-12-18T00:28:30;3.50;99.90
25825;DHT22;13658;44.534;18.694;2022-12-18T00:31:20;3.50;99.90
25825;DHT22;13658;44.534;18.694;2022-12-18T00:33:47;3.50;99.90
25825;DHT22;13658;44.534;18.694;2022-12-18T00:36:17;3.50;99.90
25825;DHT22;13658;44.534;18.694;2022-12-18T00:38:44;3.50;99.90
25825;DHT22;13658;44.534;18.694;2022-12-18T00:41:11;3.40;99.90
25825;DHT22;13658;44.534;18.694;2022-12-18T00:43:38;3.40;99.90
25825;DHT22;13658;44.534;18.694;2022-12-18T00:46:05;3.30;99.90
25825;DHT22;13658;44.534;18.694;2022-12-18T00:48:31;3.30;99.90
25825;DHT22;13658;44.534;18.694;2022-12-18T00:50:57;3.20;99.90
25825;DHT22;13658;44.534;18.694;2022-12-18T00:53:23;3.20;99.90
25825;DHT22;13658;44.534;18.694;2022-12-18T00:55:49;3.30;99.90
25825;DHT22;13658;44.534;18.694;2022-12-18T00:58:16;3.30;99.90
25825;DHT22;13658;44.534;18.694;2022-12-18T01:00:42;3.30;99.90
25825;DHT22;13658;44.534;18.694;2022-12-18T01:03:13;3.30;99.90
25825;DHT22;13658;44.534;18.694;2022-12-18T01:05:40;3.20;99.90
25825;DHT22;13658;44.534;18.694;2022-12-18T01:08:07;3.30;99.90
25825;DHT22;13658;44.534;18.694;2022-12-18T01:10:32;3.30;99.90
25825;DHT22;13658;44.534;18.694;2022-12-18T01:12:58;3.30;99.90
25825;DHT22;13658;44.534;18.694;2022-12-18T01:15:24;3.30;99.90
25825;DHT22;13658;44.534;18.694;2022-12-18T01:17:52;3.30;99.90
25825;DHT22;13658;44.534;18.694;2022-12-18T01:20:18;3.20;99.90
25825;DHT22;13658;44.534;18.694;2022-12-18T01:22:44;3.10;99.90
25825;DHT22;13658;44.534;18.694;2022-12-18T01:25:10;3.10;99.90
25825;DHT22;13658;44.534;18.694;2022-12-18T01:27:36;3.20;99.90
25825;DHT22;13658;44.534;18.694;2022-12-18T01:30:03;3.10;99.90
25825;DHT22;13658;44.534;18.694;2022-12-18T01:32:30;3.10;99.90
25825;DHT22;13658;44.534;18.694;2022-12-18T01:34:57;3.00;99.90
25825;DHT22;13658;44.534;18.694;2022-12-18T01:37:22;3.00;99.90
25825;DHT22;13658;44.534;18.694;2022-12-18T01:39:48;3.00;99.90
25825;DHT22;13658;44.534;18.694;2022-12-18T01:42:16;3.10;99.90
25825;DHT22;13658;44.534;18.694;2022-12-18T01:49:57;3.00;99.90
25825;DHT22;13658;44.534;18.694;2022-12-18T01:52:26;3.00;99.90
25825;DHT22;13658;44.534;18.694;2022-12-18T01:54:54;3.00;99.90
25825;DHT22;13658;44.534;18.694;2022-12-18T01:57:21;3.00;99.90
25825;DHT22;13658;44.534;18.694;2022-12-18T01:59:51;3.00;99.90
25825;DHT22;13658;44.534;18.694;2022-12-18T02:02:19;3.00;99.90
25825;DHT22;13658;44.534;18.694;2022-12-18T02:04:46;3.00;99.90
25825;DHT22;13658;44.534;18.694;2022-12-18T02:12:25;2.90;99.90
25825;DHT22;13658;44.534;18.694;2022-12-18T02:15:15;2.80;99.90
25825;DHT22;13658;44.534;18.694;2022-12-18T02:17:47;2.80;99.90
25825;DHT22;13658;44.534;18.694;2022-12-18T02:20:42;2.80;99.90
25825;DHT22;13658;44.534;18.694;2022-12-18T02:23:37;2.80;99.90
25825;DHT22;13658;44.534;18.694;2022-12-18T02:26:18;2.80;99.90
25825;DHT22;13658;44.534;18.694;2022-12-18T02:29:06;2.70;99.90
25825;DHT22;13658;44.534;18.694;2022-12-18T02:31:40;2.70;99.90
25825;DHT22;13658;44.534;18.694;2022-12-18T02:34:08;2.70;99.90
25825;DHT22;13658;44.534;18.694;2022-12-18T02:36:40;2.60;99.90
25825;DHT22;13658;44.534;18.694;2022-12-18T02:39:09;2.60;99.90
25825;DHT22;13658;44.534;18.694;2022-12-18T02:41:36;2.60;99.90
25825;DHT22;13658;44.534;18.694;2022-12-18T02:44:09;2.60;99.90
25825;DHT22;13658;44.534;18.694;2022-12-18T02:46:37;2.60;99.90
25825;DHT22;13658;44.534;18.694;2022-12-18T02:57:36;2.70;99.90
25825;DHT22;13658;44.534;18.694;2022-12-18T03:00:27;2.60;99.90
25825;DHT22;13658;44.534;18.694;2022-12-18T03:03:05;2.60;99.90
25825;DHT22;13658;44.534;18.694;2022-12-18T03:05:40;2.60;99.90
25825;DHT22;13658;44.534;18.694;2022-12-18T03:08:14;2.60;99.90
25825;DHT22;13658;44.534;18.694;2022-12-18T03:10:49;2.60;99.90
25825;DHT22;13658;44.534;18.694;2022-12-18T03:13:25;2.60;99.90
25825;DHT22;13658;44.534;18.694;2022-12-18T03:16:10;2.60;99.90
25825;DHT22;13658;44.534;18.694;2022-12-18T03:18:48;2.70;99.90
25825;DHT22;13658;44.534;18.694;2022-12-18T03:21:19;2.70;99.90
25825;DHT22;13658;44.534;18.694;2022-12-18T03:23:51;2.60;99.90
25825;DHT22;13658;44.534;18.694;2022-12-18T03:26:23;2.60;99.90
25825;DHT22;13658;44.534;18.694;2022-12-18T03:28:58;2.60;99.90
25825;DHT22;13658;44.534;18.694;2022-12-18T03:31:28;2.60;99.90
25825;DHT22;13658;44.534;18.694;2022-12-18T03:34:02;2.50;99.90
25825;DHT22;13658;44.534;18.694;2022-12-18T03:36:38;2.50;99.90
25825;DHT22;13658;44.534;18.694;2022-12-18T03:39:04;2.50;99.90
25825;DHT22;13658;44.534;18.694;2022-12-18T03:47:15;2.40;99.90
25825;DHT22;13658;44.534;18.694;2022-12-18T03:49:47;2.50;99.90
25825;DHT22;13658;44.534;18.694;2022-12-18T03:52:38;2.40;99.90
25825;DHT22;13658;44.534;18.694;2022-12-18T03:55:09;2.40;99.90
25825;DHT22;13658;44.534;18.694;2022-12-18T03:57:37;2.30;99.90
25825;DHT22;13658;44.534;18.694;2022-12-18T04:00:13;2.40;99.90
25825;DHT22;13658;44.534;18.694;2022-12-18T04:02:43;2.30;99.90
25825;DHT22;13658;44.534;18.694;2022-12-18T04:05:14;2.40;99.90
25825;DHT22;13658;44.534;18.694;2022-12-18T04:07:43;2.40;99.90
25825;DHT22;13658;44.534;18.694;2022-12-18T04:10:11;2.40;99.90
25825;DHT22;13658;44.534;18.694;2022-12-18T04:12:38;2.40;99.90
25825;DHT22;13658;44.534;18.694;2022-12-18T04:15:06;2.40;99.90
25825;DHT22;13658;44.534;18.694;2022-12-18T04:17:32;2.40;99.90
25825;DHT22;13658;44.534;18.694;2022-12-18T04:19:58;2.40;99.90
25825;DHT22;13658;44.534;18.694;2022-12-18T04:22:24;2.40;99.90
25825;DHT22;13658;44.534;18.694;2022-12-18T04:24:56;2.40;99.90
25825;DHT22;13658;44.534;18.694;2022-12-18T04:27:29;2.50;99.90
25825;DHT22;13658;44.534;18.694;2022-12-18T04:29:57;2.50;99.90
25825;DHT22;13658;44.534;18.694;2022-12-18T04:32:23;2.50;99.90
25825;DHT22;13658;44.534;18.694;2022-12-18T04:34:49;2.50;99.90
25825;DHT22;13658;44.534;18.694;2022-12-18T04:37:15;2.50;99.90
25825;DHT22;13658;44.534;18.694;2022-12-18T04:39:42;2.40;99.90
25825;DHT22;13658;44.534;18.694;2022-12-18T04:42:14;2.40;99.90
25825;DHT22;13658;44.534;18.694;2022-12-18T04:44:40;2.40;99.90
25825;DHT22;13658;44.534;18.694;2022-12-18T04:47:07;2.30;99.90
25825;DHT22;13658;44.534;18.694;2022-12-18T04:49:35;2.40;99.90
25825;DHT22;13658;44.534;18.694;2022-12-18T04:52:01;2.40;99.90
25825;DHT22;13658;44.534;18.694;2022-12-18T04:54:27;2.40;99.90
25825;DHT22;13658;44.534;18.694;2022-12-18T04:56:53;2.40;99.90
25825;DHT22;13658;44.534;18.694;2022-12-18T04:59:19;2.40;99.90
25825;DHT22;13658;44.534;18.694;2022-12-18T05:01:46;2.50;99.90
25825;DHT22;13658;44.534;18.694;2022-12-18T05:04:12;2.60;99.90
25825;DHT22;13658;44.534;18.694;2022-12-18T05:06:38;2.50;99.90
25825;DHT22;13658;44.534;18.694;2022-12-18T05:09:04;2.50;99.90
25825;DHT22;13658;44.534;18.694;2022-12-18T05:11:30;2.50;99.90
25825;DHT22;13658;44.534;18.694;2022-12-18T05:13:56;2.50;99.90
25825;DHT22;13658;44.534;18.694;2022-12-18T05:16:21;2.60;99.90
25825;DHT22;13658;44.534;18.694;2022-12-18T05:18:47;2.60;99.90
25825;DHT22;13658;44.534;18.694;2022-12-18T05:21:13;2.60;99.90
25825;DHT22;13658;44.534;18.694;2022-12-18T05:23:39;2.60;99.90
25825;DHT22;13658;44.534;18.694;2022-12-18T05:26:06;2.60;99.90
25825;DHT22;13658;44.534;18.694;2022-12-18T05:28:35;2.60;99.90
25825;DHT22;13658;44.534;18.694;2022-12-18T05:31:03;2.50;99.90
25825;DHT22;13658;44.534;18.694;2022-12-18T05:33:32;2.50;99.90
25825;DHT22;13658;44.534;18.694;2022-12-18T05:36:03;2.50;99.90
25825;DHT22;13658;44.534;18.694;2022-12-18T05:38:31;2.50;99.90
25825;DHT22;13658;44.534;18.694;2022-12-18T05:40:57;2.60;99.90
25825;DHT22;13658;44.534;18.694;2022-12-18T05:43:25;2.60;99.90
25825;DHT22;13658;44.534;18.694;2022-12-18T05:45:51;2.50;99.90
25825;DHT22;13658;44.534;18.694;2022-12-18T05:48:18;2.50;99.90
25825;DHT22;13658;44.534;18.694;2022-12-18T05:50:46;2.50;99.90
25825;DHT22;13658;44.534;18.694;2022-12-18T05:53:17;2.50;99.90
25825;DHT22;13658;44.534;18.694;2022-12-18T05:55:43;2.50;99.90
25825;DHT22;13658;44.534;18.694;2022-12-18T05:58:11;2.50;99.90
25825;DHT22;13658;44.534;18.694;2022-12-18T06:00:40;2.40;99.90
25825;DHT22;13658;44.534;18.694;2022-12-18T06:03:07;2.40;99.90
25825;DHT22;13658;44.534;18.694;2022-12-18T06:05:40;2.30;99.90
25825;DHT22;13658;44.534;18.694;2022-12-18T06:08:07;2.30;99.90
25825;DHT22;13658;44.534;18.694;2022-12-18T06:10:33;2.30;99.90
25825;DHT22;13658;44.534;18.694;2022-12-18T06:13:00;2.30;99.90
25825;DHT22;13658;44.534;18.694;2022-12-18T06:15:26;2.30;99.90
25825;DHT22;13658;44.534;18.694;2022-12-18T06:17:52;2.20;99.90
25825;DHT22;13658;44.534;18.694;2022-12-18T06:20:18;2.20;99.90
25825;DHT22;13658;44.534;18.694;2022-12-18T06:22:44;2.10;99.90
25825;DHT22;13658;44.534;18.694;2022-12-18T06:25:10;2.10;99.90
25825;DHT22;13658;44.534;18.694;2022-12-18T06:27:36;2.10;99.90
25825;DHT22;13658;44.534;18.694;2022-12-18T06:30:03;2.10;99.90
25825;DHT22;13658;44.534;18.694;2022-12-18T06:32:29;2.10;99.90
25825;DHT22;13658;44.534;18.694;2022-12-18T06:34:55;2.00;99.90
25825;DHT22;13658;44.534;18.694;2022-12-18T06:37:21;2.00;99.90
25825;DHT22;13658;44.534;18.694;2022-12-18T06:39:52;2.00;99.90
25825;DHT22;13658;44.534;18.694;2022-12-18T06:42:21;2.00;99.90
25825;DHT22;13658;44.534;18.694;2022-12-18T06:44:47;1.90;99.90
25825;DHT22;13658;44.534;18.694;2022-12-18T06:47:13;2.00;99.90
25825;DHT22;13658;44.534;18.694;2022-12-18T06:49:40;2.00;99.90
25825;DHT22;13658;44.534;18.694;2022-12-18T06:52:06;2.10;99.90
25825;DHT22;13658;44.534;18.694;2022-12-18T06:54:31;2.10;99.90
25825;DHT22;13658;44.534;18.694;2022-12-18T06:56:57;2.10;99.90
25825;DHT22;13658;44.534;18.694;2022-12-18T06:59:23;2.00;99.90
25825;DHT22;13658;44.534;18.694;2022-12-18T07:01:58;2.10;99.90
25825;DHT22;13658;44.534;18.694;2022-12-18T07:04:29;2.00;99.90
25825;DHT22;13658;44.534;18.694;2022-12-18T07:06:55;2.00;99.90
25825;DHT22;13658;44.534;18.694;2022-12-18T07:09:21;2.10;99.90
25825;DHT22;13658;44.534;18.694;2022-12-18T07:11:47;2.10;99.90
25825;DHT22;13658;44.534;18.694;2022-12-18T07:14:13;2.00;99.90
25825;DHT22;13658;44.534;18.694;2022-12-18T07:16:39;2.00;99.90
25825;DHT22;13658;44.534;18.694;2022-12-18T07:19:04;2.00;99.90
25825;DHT22;13658;44.534;18.694;2022-12-18T07:21:30;2.00;99.90
25825;DHT22;13658;44.534;18.694;2022-12-18T07:23:56;1.90;99.90
25825;DHT22;13658;44.534;18.694;2022-12-18T07:26:23;2.00;99.90
25825;DHT22;13658;44.534;18.694;2022-12-18T07:28:49;2.00;99.90
25825;DHT22;13658;44.534;18.694;2022-12-18T07:31:18;2.00;99.90
25825;DHT22;13658;44.534;18.694;2022-12-18T07:33:45;2.00;99.90
25825;DHT22;13658;44.534;18.694;2022-12-18T07:36:11;2.00;99.90
25825;DHT22;13658;44.534;18.694;2022-12-18T07:38:38;2.00;99.90
25825;DHT22;13658;44.534;18.694;2022-12-18T07:41:09;2.00;99.90
25825;DHT22;13658;44.534;18.694;2022-12-18T07:43:36;2.00;99.90
25825;DHT22;13658;44.534;18.694;2022-12-18T07:46:02;2.00;99.90
25825;DHT22;13658;44.534;18.694;2022-12-18T07:48:29;1.90;99.90
25825;DHT22;13658;44.534;18.694;2022-12-18T07:51:02;1.90;99.90
25825;DHT22;13658;44.534;18.694;2022-12-18T07:53:30;1.90;99.90
25825;DHT22;13658;44.534;18.694;2022-12-18T07:55:57;1.80;99.90
25825;DHT22;13658;44.534;18.694;2022-12-18T07:58:24;1.80;99.90
25825;DHT22;13658;44.534;18.694;2022-12-18T08:00:50;1.80;99.90
25825;DHT22;13658;44.534;18.694;2022-12-18T08:03:16;1.70;99.90
25825;DHT22;13658;44.534;18.694;2022-12-18T08:05:42;1.60;99.90
25825;DHT22;13658;44.534;18.694;2022-12-18T08:08:08;1.60;99.90
25825;DHT22;13658;44.534;18.694;2022-12-18T08:10:34;1.60;99.90
25825;DHT22;13658;44.534;18.694;2022-12-18T08:13:00;1.60;99.90
25825;DHT22;13658;44.534;18.694;2022-12-18T08:15:25;1.50;99.90
25825;DHT22;13658;44.534;18.694;2022-12-18T08:17:51;1.50;99.90
25825;DHT22;13658;44.534;18.694;2022-12-18T08:20:17;1.50;99.90
25825;DHT22;13658;44.534;18.694;2022-12-18T08:22:44;1.60;99.90
25825;DHT22;13658;44.534;18.694;2022-12-18T08:25:10;2.20;99.90
25825;DHT22;13658;44.534;18.694;2022-12-18T08:27:36;2.90;99.90
25825;DHT22;13658;44.534;18.694;2022-12-18T08:30:03;3.90;99.90
25825;DHT22;13658;44.534;18.694;2022-12-18T08:32:29;4.50;99.90
25825;DHT22;13658;44.534;18.694;2022-12-18T08:34:55;5.10;99.90
25825;DHT22;13658;44.534;18.694;2022-12-18T08:37:21;5.80;99.90
25825;DHT22;13658;44.534;18.694;2022-12-18T08:39:47;6.30;99.90
25825;DHT22;13658;44.534;18.694;2022-12-18T08:42:13;6.30;99.90
25825;DHT22;13658;44.534;18.694;2022-12-18T08:44:57;6.20;99.90
25825;DHT22;13658;44.534;18.694;2022-12-18T08:47:23;6.20;99.90
25825;DHT22;13658;44.534;18.694;2022-12-18T08:49:51;6.40;99.90
25825;DHT22;13658;44.534;18.694;2022-12-18T08:52:17;6.70;99.90
25825;DHT22;13658;44.534;18.694;2022-12-18T08:54:43;6.70;99.90
25825;DHT22;13658;44.534;18.694;2022-12-18T08:57:09;6.90;99.90
25825;DHT22;13658;44.534;18.694;2022-12-18T08:59:35;7.50;99.90
25825;DHT22;13658;44.534;18.694;2022-12-18T09:02:01;7.60;99.90
25825;DHT22;13658;44.534;18.694;2022-12-18T09:04:27;8.00;99.90
25825;DHT22;13658;44.534;18.694;2022-12-18T09:06:55;8.70;99.90
25825;DHT22;13658;44.534;18.694;2022-12-18T09:09:21;8.50;99.90
25825;DHT22;13658;44.534;18.694;2022-12-18T09:11:47;8.60;99.90
25825;DHT22;13658;44.534;18.694;2022-12-18T09:14:13;8.90;99.90
25825;DHT22;13658;44.534;18.694;2022-12-18T09:16:39;8.80;99.90
25825;DHT22;13658;44.534;18.694;2022-12-18T09:19:05;9.00;99.90
25825;DHT22;13658;44.534;18.694;2022-12-18T09:21:33;8.60;99.90
25825;DHT22;13658;44.534;18.694;2022-12-18T09:23:59;8.60;99.90
25825;DHT22;13658;44.534;18.694;2022-12-18T09:26:26;9.00;99.90
25825;DHT22;13658;44.534;18.694;2022-12-18T09:28:53;8.60;99.90
25825;DHT22;13658;44.534;18.694;2022-12-18T09:31:20;9.00;99.90
25825;DHT22;13658;44.534;18.694;2022-12-18T09:33:47;9.80;99.90
25825;DHT22;13658;44.534;18.694;2022-12-18T09:36:15;9.70;99.90
25825;DHT22;13658;44.534;18.694;2022-12-18T09:38:41;10.00;99.90
25825;DHT22;13658;44.534;18.694;2022-12-18T09:43:54;10.20;99.90
25825;DHT22;13658;44.534;18.694;2022-12-18T09:46:32;10.70;99.90
25825;DHT22;13658;44.534;18.694;2022-12-18T09:49:02;10.40;99.90
25825;DHT22;13658;44.534;18.694;2022-12-18T09:51:37;9.90;99.90
25825;DHT22;13658;44.534;18.694;2022-12-18T09:54:12;9.10;99.90
25825;DHT22;13658;44.534;18.694;2022-12-18T09:56:42;8.60;99.90
25825;DHT22;13658;44.534;18.694;2022-12-18T09:59:20;7.70;99.90
25825;DHT22;13658;44.534;18.694;2022-12-18T10:01:47;7.00;99.90
25825;DHT22;13658;44.534;18.694;2022-12-18T10:04:13;6.80;99.90
25825;DHT22;13658;44.534;18.694;2022-12-18T10:06:49;6.50;99.90
25825;DHT22;13658;44.534;18.694;2022-12-18T10:17:43;5.70;99.90
25825;DHT22;13658;44.534;18.694;2022-12-18T10:20:19;5.30;99.90
25825;DHT22;13658;44.534;18.694;2022-12-18T10:26:06;4.90;99.90
25825;DHT22;13658;44.534;18.694;2022-12-18T10:28:37;4.80;99.90
25825;DHT22;13658;44.534;18.694;2022-12-18T10:31:19;4.90;99.90
25825;DHT22;13658;44.534;18.694;2022-12-18T10:33:46;4.60;99.90
25825;DHT22;13658;44.534;18.694;2022-12-18T10:36:13;4.40;99.90
25825;DHT22;13658;44.534;18.694;2022-12-18T10:38:41;4.40;99.90
25825;DHT22;13658;44.534;18.694;2022-12-18T10:41:25;4.50;99.90
25825;DHT22;13658;44.534;18.694;2022-12-18T10:44:19;4.70;99.90
25825;DHT22;13658;44.534;18.694;2022-12-18T10:46:48;4.70;99.90
25825;DHT22;13658;44.534;18.694;2022-12-18T10:49:21;4.70;99.90
25825;DHT22;13658;44.534;18.694;2022-12-18T10:51:47;4.70;99.90
25825;DHT22;13658;44.534;18.694;2022-12-18T10:54:22;4.60;99.90
25825;DHT22;13658;44.534;18.694;2022-12-18T10:56:49;4.90;99.90
25825;DHT22;13658;44.534;18.694;2022-12-18T10:59:17;5.00;99.90
25825;DHT22;13658;44.534;18.694;2022-12-18T11:01:49;5.20;99.90
25825;DHT22;13658;44.534;18.694;2022-12-18T11:04:23;5.20;99.90
25825;DHT22;13658;44.534;18.694;2022-12-18T11:07:03;5.20;99.90
25825;DHT22;13658;44.534;18.694;2022-12-18T11:09:30;5.20;99.90
25825;DHT22;13658;44.534;18.694;2022-12-18T11:12:17;5.20;99.90
25825;DHT22;13658;44.534;18.694;2022-12-18T11:14:49;5.30;99.90
25825;DHT22;13658;44.534;18.694;2022-12-18T11:19:58;5.20;99.90
25825;DHT22;13658;44.534;18.694;2022-12-18T11:22:33;5.10;99.90
25825;DHT22;13658;44.534;18.694;2022-12-18T11:27:38;4.90;99.90
25825;DHT22;13658;44.534;18.694;2022-12-18T11:30:28;4.70;99.90
25825;DHT22;13658;44.534;18.694;2022-12-18T11:33:10;4.50;99.90
25825;DHT22;13658;44.534;18.694;2022-12-18T11:35:52;4.30;99.90
25825;DHT22;13658;44.534;18.694;2022-12-18T11:38:28;4.40;99.90
25825;DHT22;13658;44.534;18.694;2022-12-18T11:43:33;4.60;99.90
25825;DHT22;13658;44.534;18.694;2022-12-18T11:46:13;4.60;99.90
25825;DHT22;13658;44.534;18.694;2022-12-18T11:49:03;4.50;99.90
25825;DHT22;13658;44.534;18.694;2022-12-18T11:51:39;4.20;99.90
25825;DHT22;13658;44.534;18.694;2022-12-18T11:54:14;4.30;99.90
25825;DHT22;13658;44.534;18.694;2022-12-18T11:56:48;4.30;99.90
25825;DHT22;13658;44.534;18.694;2022-12-18T11:59:51;4.40;99.90
25825;DHT22;13658;44.534;18.694;2022-12-18T12:02:34;4.60;99.90
25825;DHT22;13658;44.534;18.694;2022-12-18T12:08:15;4.40;99.90
25825;DHT22;13658;44.534;18.694;2022-12-18T12:13:37;4.30;99.90
25825;DHT22;13658;44.534;18.694;2022-12-18T12:16:37;4.40;99.90
25825;DHT22;13658;44.534;18.694;2022-12-18T12:19:23;4.50;99.90
25825;DHT22;13658;44.534;18.694;2022-12-18T12:22:33;4.60;99.90
25825;DHT22;13658;44.534;18.694;2022-12-18T12:25:07;4.70;99.90
25825;DHT22;13658;44.534;18.694;2022-12-18T12:33:51;4.50;99.90
25825;DHT22;13658;44.534;18.694;2022-12-18T12:39:03;4.50;99.90
25825;DHT22;13658;44.534;18.694;2022-12-18T12:41:33;4.60;99.90
25825;DHT22;13658;44.534;18.694;2022-12-18T12:44:38;4.50;99.90
25825;DHT22;13658;44.534;18.694;2022-12-18T12:47:14;4.50;99.90
25825;DHT22;13658;44.534;18.694;2022-12-18T12:49:42;4.70;99.90
25825;DHT22;13658;44.534;18.694;2022-12-18T12:52:34;4.60;99.90
25825;DHT22;13658;44.534;18.694;2022-12-18T12:55:05;4.50;99.90
25825;DHT22;13658;44.534;18.694;2022-12-18T12:57:45;4.60;99.90
25825;DHT22;13658;44.534;18.694;2022-12-18T13:00:17;4.50;99.90
25825;DHT22;13658;44.534;18.694;2022-12-18T13:08:30;4.60;99.90
25825;DHT22;13658;44.534;18.694;2022-12-18T13:10:58;4.40;99.90
25825;DHT22;13658;44.534;18.694;2022-12-18T13:13:50;4.40;99.90
25825;DHT22;13658;44.534;18.694;2022-12-18T13:16:21;4.40;99.90
25825;DHT22;13658;44.534;18.694;2022-12-18T13:18:57;4.40;99.90
25825;DHT22;13658;44.534;18.694;2022-12-18T13:21:34;4.50;99.90
25825;DHT22;13658;44.534;18.694;2022-12-18T13:24:30;4.60;99.90
25825;DHT22;13658;44.534;18.694;2022-12-18T13:26:56;4.60;99.90
25825;DHT22;13658;44.534;18.694;2022-12-18T13:29:45;4.50;99.90
25825;DHT22;13658;44.534;18.694;2022-12-18T13:32:25;4.60;99.90
25825;DHT22;13658;44.534;18.694;2022-12-18T13:37:53;4.60;99.90
25825;DHT22;13658;44.534;18.694;2022-12-18T13:46:04;4.60;99.90
25825;DHT22;13658;44.534;18.694;2022-12-18T13:48:36;4.50;99.90
25825;DHT22;13658;44.534;18.694;2022-12-18T13:51:07;4.50;99.90
25825;DHT22;13658;44.534;18.694;2022-12-18T13:53:39;4.50;99.90
25825;DHT22;13658;44.534;18.694;2022-12-18T13:56:09;4.50;99.90
25825;DHT22;13658;44.534;18.694;2022-12-18T13:58:37;4.60;99.90
25825;DHT22;13658;44.534;18.694;2022-12-18T14:01:03;4.60;99.90
25825;DHT22;13658;44.534;18.694;2022-12-18T14:03:30;4.60;99.90
25825;DHT22;13658;44.534;18.694;2022-12-18T14:06:00;4.50;99.90
25825;DHT22;13658;44.534;18.694;2022-12-18T14:08:33;4.50;99.90
25825;DHT22;13658;44.534;18.694;2022-12-18T14:11:01;4.50;99.90
25825;DHT22;13658;44.534;18.694;2022-12-18T14:13:31;4.40;99.90
25825;DHT22;13658;44.534;18.694;2022-12-18T14:16:01;4.30;99.90
25825;DHT22;13658;44.534;18.694;2022-12-18T14:18:50;4.30;99.90
25825;DHT22;13658;44.534;18.694;2022-12-18T14:21:26;4.20;99.90
25825;DHT22;13658;44.534;18.694;2022-12-18T14:26:34;4.10;99.90
25825;DHT22;13658;44.534;18.694;2022-12-18T14:29:18;4.10;99.90
25825;DHT22;13658;44.534;18.694;2022-12-18T14:31:44;4.10;99.90
25825;DHT22;13658;44.534;18.694;2022-12-18T14:34:22;4.00;99.90
25825;DHT22;13658;44.534;18.694;2022-12-18T14:36:52;4.00;99.90
25825;DHT22;13658;44.534;18.694;2022-12-18T14:39:19;3.90;99.90
25825;DHT22;13658;44.534;18.694;2022-12-18T14:41:45;3.90;99.90
25825;DHT22;13658;44.534;18.694;2022-12-18T14:44:13;3.80;99.90
25825;DHT22;13658;44.534;18.694;2022-12-18T14:46:41;3.80;99.90
25825;DHT22;13658;44.534;18.694;2022-12-18T14:49:26;3.70;99.90
25825;DHT22;13658;44.534;18.694;2022-12-18T14:52:06;3.60;99.90
25825;DHT22;13658;44.534;18.694;2022-12-18T14:54:40;3.40;99.90
25825;DHT22;13658;44.534;18.694;2022-12-18T14:57:24;3.30;99.90
25825;DHT22;13658;44.534;18.694;2022-12-18T14:59:52;3.20;99.90
25825;DHT22;13658;44.534;18.694;2022-12-18T15:04:47;3.00;99.90
25825;DHT22;13658;44.534;18.694;2022-12-18T15:07:24;2.90;99.90
25825;DHT22;13658;44.534;18.694;2022-12-18T15:12:43;2.70;99.90
25825;DHT22;13658;44.534;18.694;2022-12-18T15:26:02;2.50;99.90
25825;DHT22;13658;44.534;18.694;2022-12-18T15:28:50;2.50;99.90
25825;DHT22;13658;44.534;18.694;2022-12-18T15:31:38;2.50;99.90
25825;DHT22;13658;44.534;18.694;2022-12-18T15:34:12;2.40;99.90
25825;DHT22;13658;44.534;18.694;2022-12-18T15:36:38;2.40;99.90
25825;DHT22;13658;44.534;18.694;2022-12-18T15:39:09;2.30;99.90
25825;DHT22;13658;44.534;18.694;2022-12-18T15:41:38;2.30;99.90
25825;DHT22;13658;44.534;18.694;2022-12-18T15:44:37;2.20;99.90
25825;DHT22;13658;44.534;18.694;2022-12-18T15:47:04;2.10;99.90
25825;DHT22;13658;44.534;18.694;2022-12-18T15:49:33;2.10;99.90
25825;DHT22;13658;44.534;18.694;2022-12-18T15:52:01;2.10;99.90
25825;DHT22;13658;44.534;18.694;2022-12-18T15:54:31;2.00;99.90
25825;DHT22;13658;44.534;18.694;2022-12-18T15:57:16;2.00;99.90
25825;DHT22;13658;44.534;18.694;2022-12-18T15:59:52;1.90;99.90
25825;DHT22;13658;44.534;18.694;2022-12-18T16:02:22;1.90;99.90
25825;DHT22;13658;44.534;18.694;2022-12-18T16:04:51;1.80;99.90
25825;DHT22;13658;44.534;18.694;2022-12-18T16:07:18;1.80;99.90
25825;DHT22;13658;44.534;18.694;2022-12-18T16:09:44;1.80;99.90
25825;DHT22;13658;44.534;18.694;2022-12-18T16:12:26;1.80;99.90
25825;DHT22;13658;44.534;18.694;2022-12-18T16:14:55;1.70;99.90
25825;DHT22;13658;44.534;18.694;2022-12-18T16:17:26;1.60;99.90
25825;DHT22;13658;44.534;18.694;2022-12-18T16:19:54;1.50;99.90
25825;DHT22;13658;44.534;18.694;2022-12-18T16:22:27;1.50;99.90
25825;DHT22;13658;44.534;18.694;2022-12-18T16:24:57;1.40;99.90
25825;DHT22;13658;44.534;18.694;2022-12-18T16:27:23;1.40;99.90
25825;DHT22;13658;44.534;18.694;2022-12-18T16:29:49;1.40;99.90
25825;DHT22;13658;44.534;18.694;2022-12-18T16:32:21;1.40;99.90
25825;DHT22;13658;44.534;18.694;2022-12-18T16:34:48;1.30;99.90
25825;DHT22;13658;44.534;18.694;2022-12-18T16:37:15;1.20;99.90
25825;DHT22;13658;44.534;18.694;2022-12-18T16:39:41;1.20;99.90
25825;DHT22;13658;44.534;18.694;2022-12-18T16:42:17;1.10;99.90
25825;DHT22;13658;44.534;18.694;2022-12-18T16:44:47;1.00;99.90
25825;DHT22;13658;44.534;18.694;2022-12-18T16:47:14;1.10;99.90
25825;DHT22;13658;44.534;18.694;2022-12-18T16:49:41;1.00;99.90
25825;DHT22;13658;44.534;18.694;2022-12-18T16:52:07;1.00;99.90
25825;DHT22;13658;44.534;18.694;2022-12-18T16:54:33;1.00;99.90
25825;DHT22;13658;44.534;18.694;2022-12-18T16:57:02;1.00;99.90
25825;DHT22;13658;44.534;18.694;2022-12-18T16:59:28;0.90;99.90
25825;DHT22;13658;44.534;18.694;2022-12-18T17:01:54;0.80;99.90
25825;DHT22;13658;44.534;18.694;2022-12-18T17:04:22;0.70;99.90
25825;DHT22;13658;44.534;18.694;2022-12-18T17:06:48;0.60;99.90
25825;DHT22;13658;44.534;18.694;2022-12-18T17:09:17;0.50;99.90
25825;DHT22;13658;44.534;18.694;2022-12-18T17:11:47;0.40;99.90
25825;DHT22;13658;44.534;18.694;2022-12-18T17:14:15;0.40;99.90
25825;DHT22;13658;44.534;18.694;2022-12-18T17:16:42;0.40;99.90
25825;DHT22;13658;44.534;18.694;2022-12-18T17:19:09;0.40;99.90
25825;DHT22;13658;44.534;18.694;2022-12-18T17:21:35;0.50;99.90
25825;DHT22;13658;44.534;18.694;2022-12-18T17:24:01;0.50;99.90
25825;DHT22;13658;44.534;18.694;2022-12-18T17:26:28;0.50;99.90